createdAt,value
2023-01-09T00:00:30.285Z,0.00
2023-01-09T00:01:30.173Z,0.00
2023-01-09T00:02:30.231Z,0.00
2023-01-09T00:03:30.282Z,0.00
2023-01-09T00:04:30.228Z,0.00
2023-01-09T00:05:30.255Z,0.00
2023-01-09T00:06:30.235Z,0.00
2023-01-09T00:07:30.265Z,0.00
2023-01-09T00:08:30.340Z,0.00
2023-01-09T00:09:30.301Z,0.00
2023-01-09T00:10:30.345Z,0.00
2023-01-09T00:11:30.320Z,0.00
2023-01-09T00:12:30.347Z,0.00
2023-01-09T00:13:30.373Z,0.00
2023-01-09T00:14:30.416Z,0.00
2023-01-09T00:15:30.443Z,0.00
2023-01-09T00:16:30.530Z,0.00
2023-01-09T00:17:30.425Z,0.00
2023-01-09T00:18:30.458Z,0.00
2023-01-09T00:19:30.436Z,0.00
2023-01-09T00:20:30.470Z,0.00
2023-01-09T00:21:30.486Z,0.00
2023-01-09T00:22:30.507Z,0.00
2023-01-09T00:23:30.536Z,0.00
2023-01-09T00:24:30.564Z,0.00
2023-01-09T00:25:30.538Z,0.00
2023-01-09T00:26:30.531Z,0.00
2023-01-09T00:27:30.548Z,0.00
2023-01-09T00:28:30.566Z,0.00
2023-01-09T00:29:30.595Z,0.00
2023-01-09T00:30:30.693Z,0.00
2023-01-09T00:31:30.643Z,0.00
2023-01-09T00:32:30.674Z,0.00
2023-01-09T00:33:30.698Z,0.00
2023-01-09T00:34:30.715Z,0.00
2023-01-09T00:35:30.768Z,0.00
2023-01-09T00:36:30.739Z,0.00
2023-01-09T00:37:30.761Z,0.00
2023-01-09T00:38:30.798Z,0.00
2023-01-09T00:39:30.835Z,0.00
2023-01-09T00:40:30.827Z,0.00
2023-01-09T00:41:30.801Z,0.00
2023-01-09T00:42:30.782Z,0.00
2023-01-09T00:43:30.836Z,0.00
2023-01-09T00:44:30.794Z,0.00
2023-01-09T00:45:30.837Z,0.00
2023-01-09T00:46:30.836Z,0.00
2023-01-09T00:47:30.805Z,0.00
2023-01-09T00:48:30.828Z,0.00
2023-01-09T00:49:30.876Z,0.00
2023-01-09T00:50:30.861Z,0.00
2023-01-09T00:51:30.878Z,0.00
2023-01-09T00:52:30.867Z,0.00
2023-01-09T00:53:30.905Z,0.00
2023-01-09T00:54:30.891Z,0.00
2023-01-09T00:55:30.899Z,0.00
2023-01-09T00:56:30.956Z,0.00
2023-01-09T00:57:30.944Z,0.00
2023-01-09T00:58:30.957Z,0.00
2023-01-09T00:59:30.960Z,0.00
2023-01-09T01:00:30.979Z,0.00
2023-01-09T01:01:31.103Z,0.00
2023-01-09T01:02:31.167Z,0.00
2023-01-09T01:03:31.087Z,0.00
2023-01-09T01:04:31.063Z,0.00
2023-01-09T01:05:31.045Z,0.00
2023-01-09T01:06:31.063Z,0.00
2023-01-09T01:07:31.102Z,0.00
2023-01-09T01:08:31.114Z,0.00
2023-01-09T01:09:31.176Z,0.00
2023-01-09T01:10:31.169Z,0.00
2023-01-09T01:11:31.137Z,0.00
2023-01-09T01:12:31.201Z,0.00
2023-01-09T01:13:31.163Z,0.00
2023-01-09T01:14:31.211Z,0.00
2023-01-09T01:15:31.207Z,0.00
2023-01-09T01:16:31.272Z,0.00
2023-01-09T01:17:31.238Z,0.00
2023-01-09T01:18:31.274Z,0.00
2023-01-09T01:19:31.554Z,0.00
2023-01-09T01:20:31.328Z,0.00
2023-01-09T01:21:31.358Z,0.00
2023-01-09T01:22:31.361Z,0.00
2023-01-09T01:23:31.393Z,0.00
2023-01-09T01:24:31.685Z,0.00
2023-01-09T01:25:31.425Z,0.00
2023-01-09T01:26:31.446Z,0.00
2023-01-09T01:27:31.480Z,0.00
2023-01-09T01:28:31.547Z,0.00
2023-01-09T01:29:31.521Z,0.00
2023-01-09T01:30:31.563Z,0.00
2023-01-09T01:31:31.523Z,0.00
2023-01-09T01:32:31.550Z,0.00
2023-01-09T01:33:31.599Z,0.00
2023-01-09T01:34:31.619Z,0.00
2023-01-09T01:35:31.627Z,0.00
2023-01-09T01:36:31.652Z,0.00
2023-01-09T01:37:31.667Z,0.00
2023-01-09T01:38:31.688Z,0.00
2023-01-09T01:39:31.742Z,0.00
2023-01-09T01:40:31.783Z,0.00
2023-01-09T01:41:31.712Z,0.00
2023-01-09T01:42:31.745Z,0.00
2023-01-09T01:43:31.782Z,0.00
2023-01-09T01:44:31.769Z,0.00
2023-01-09T01:45:31.797Z,0.00
2023-01-09T01:46:31.797Z,0.00
2023-01-09T01:47:31.821Z,0.00
2023-01-09T01:48:31.865Z,0.00
2023-01-09T01:49:31.835Z,0.00
2023-01-09T01:50:31.876Z,0.00
2023-01-09T01:51:31.912Z,0.00
2023-01-09T01:52:31.890Z,0.00
2023-01-09T01:53:31.913Z,0.00
2023-01-09T01:54:31.935Z,0.00
2023-01-09T01:55:31.968Z,0.00
2023-01-09T01:56:31.963Z,0.00
2023-01-09T01:57:31.967Z,0.00
2023-01-09T01:58:32.020Z,0.00
2023-01-09T01:59:31.998Z,0.00
2023-01-09T02:00:32.043Z,0.00
2023-01-09T02:01:32.123Z,0.00
2023-01-09T02:02:32.088Z,0.00
2023-01-09T02:03:32.028Z,0.00
2023-01-09T02:04:32.067Z,0.00
2023-01-09T02:05:32.078Z,0.00
2023-01-09T02:06:32.121Z,0.00
2023-01-09T02:07:32.102Z,0.00
2023-01-09T02:08:32.138Z,0.00
2023-01-09T02:09:32.145Z,0.00
2023-01-09T02:10:32.193Z,0.00
2023-01-09T02:11:32.232Z,0.00
2023-01-09T02:12:32.201Z,0.00
2023-01-09T02:13:32.224Z,0.00
2023-01-09T02:14:32.253Z,0.00
2023-01-09T02:15:32.272Z,0.00
2023-01-09T02:16:32.375Z,0.00
2023-01-09T02:17:32.297Z,0.00
2023-01-09T02:18:32.313Z,0.00
2023-01-09T02:19:32.338Z,0.00
2023-01-09T02:20:32.364Z,0.00
2023-01-09T02:21:32.416Z,0.00
2023-01-09T02:22:32.392Z,0.00
2023-01-09T02:23:32.427Z,0.00
2023-01-09T02:24:32.446Z,0.00
2023-01-09T02:25:32.478Z,0.00
2023-01-09T02:26:32.501Z,0.00
2023-01-09T02:27:32.475Z,0.00
2023-01-09T02:28:32.499Z,0.00
2023-01-09T02:29:32.542Z,0.00
2023-01-09T02:30:32.575Z,0.00
2023-01-09T02:31:32.636Z,0.00
2023-01-09T02:32:32.611Z,0.00
2023-01-09T02:33:32.566Z,0.00
2023-01-09T02:34:32.614Z,0.00
2023-01-09T02:35:32.632Z,0.00
2023-01-09T02:36:32.687Z,0.00
2023-01-09T02:37:32.645Z,0.00
2023-01-09T02:38:32.672Z,0.00
2023-01-09T02:39:32.694Z,0.00
2023-01-09T02:40:32.721Z,0.00
2023-01-09T02:41:32.767Z,0.00
2023-01-09T02:42:32.765Z,0.00
2023-01-09T02:43:32.767Z,0.00
2023-01-09T02:44:32.795Z,0.00
2023-01-09T02:45:32.882Z,0.00
2023-01-09T02:46:32.880Z,0.00
2023-01-09T02:47:32.856Z,0.00
2023-01-09T02:48:32.915Z,0.00
2023-01-09T02:49:32.877Z,0.00
2023-01-09T02:50:32.912Z,0.00
2023-01-09T02:51:32.943Z,0.00
2023-01-09T02:52:32.936Z,0.00
2023-01-09T02:53:32.944Z,0.00
2023-01-09T02:54:32.992Z,0.00
2023-01-09T02:55:32.961Z,0.00
2023-01-09T02:56:33.003Z,0.00
2023-01-09T02:57:33.008Z,0.00
2023-01-09T02:58:33.023Z,0.00
2023-01-09T02:59:33.043Z,0.00
2023-01-09T03:00:33.097Z,0.00
2023-01-09T03:01:33.221Z,0.00
2023-01-09T03:02:33.070Z,0.00
2023-01-09T03:03:33.040Z,0.00
2023-01-09T03:04:33.099Z,0.00
2023-01-09T03:05:33.063Z,0.00
2023-01-09T03:06:33.094Z,0.00
2023-01-09T03:07:33.092Z,0.00
2023-01-09T03:08:33.115Z,0.00
2023-01-09T03:09:33.172Z,0.00
2023-01-09T03:10:33.141Z,0.00
2023-01-09T03:11:33.116Z,0.00
2023-01-09T03:12:33.146Z,0.00
2023-01-09T03:13:33.195Z,0.00
2023-01-09T03:14:33.243Z,0.00
2023-01-09T03:15:33.205Z,0.00
2023-01-09T03:16:33.295Z,0.00
2023-01-09T03:17:33.225Z,0.00
2023-01-09T03:18:33.280Z,0.00
2023-01-09T03:19:33.256Z,0.00
2023-01-09T03:20:33.322Z,0.00
2023-01-09T03:21:33.290Z,0.00
2023-01-09T03:22:33.322Z,0.00
2023-01-09T03:23:33.369Z,0.00
2023-01-09T03:24:33.350Z,0.00
2023-01-09T03:25:33.366Z,0.00
2023-01-09T03:26:33.415Z,0.00
2023-01-09T03:27:33.418Z,0.00
2023-01-09T03:28:33.456Z,0.00
2023-01-09T03:29:33.437Z,0.00
2023-01-09T03:30:33.481Z,0.00
2023-01-09T03:31:33.621Z,0.00
2023-01-09T03:32:33.497Z,0.00
2023-01-09T03:33:33.816Z,0.00
2023-01-09T03:34:33.534Z,0.00
2023-01-09T03:35:33.513Z,0.00
2023-01-09T03:36:33.573Z,0.00
2023-01-09T03:37:33.528Z,0.00
2023-01-09T03:38:33.571Z,0.00
2023-01-09T03:39:33.597Z,0.00
2023-01-09T03:40:33.626Z,0.00
2023-01-09T03:41:33.644Z,0.00
2023-01-09T03:42:33.666Z,0.00
2023-01-09T03:43:33.724Z,0.00
2023-01-09T03:44:33.700Z,0.00
2023-01-09T03:45:33.794Z,0.00
2023-01-09T03:46:33.742Z,0.00
2023-01-09T03:47:33.762Z,0.00
2023-01-09T03:48:33.809Z,0.00
2023-01-09T03:49:33.786Z,0.00
2023-01-09T03:50:33.858Z,0.00
2023-01-09T03:51:33.830Z,0.00
2023-01-09T03:52:33.871Z,0.00
2023-01-09T03:53:33.856Z,0.00
2023-01-09T03:54:33.814Z,0.00
2023-01-09T03:55:33.860Z,0.00
2023-01-09T03:56:33.867Z,0.00
2023-01-09T03:57:33.898Z,0.00
2023-01-09T03:58:33.951Z,0.00
2023-01-09T03:59:33.932Z,0.00
2023-01-09T04:00:33.962Z,0.00
2023-01-09T04:01:34.114Z,0.00
2023-01-09T04:02:33.998Z,0.00
2023-01-09T04:03:34.066Z,0.00
2023-01-09T04:04:34.040Z,0.00
2023-01-09T04:05:34.100Z,0.00
2023-01-09T04:06:34.068Z,0.00
2023-01-09T04:07:34.100Z,0.00
2023-01-09T04:08:34.142Z,0.00
2023-01-09T04:09:34.123Z,0.00
2023-01-09T04:10:34.103Z,0.00
2023-01-09T04:11:34.146Z,0.00
2023-01-09T04:12:34.173Z,0.00
2023-01-09T04:13:34.187Z,0.00
2023-01-09T04:14:34.225Z,0.00
2023-01-09T04:15:34.213Z,0.00
2023-01-09T04:16:34.258Z,0.00
2023-01-09T04:17:34.263Z,0.00
2023-01-09T04:18:34.266Z,0.00
2023-01-09T04:19:34.262Z,0.00
2023-01-09T04:20:34.293Z,0.00
2023-01-09T04:21:34.277Z,0.00
2023-01-09T04:22:34.298Z,0.00
2023-01-09T04:23:34.338Z,0.00
2023-01-09T04:24:34.351Z,0.00
2023-01-09T04:25:34.323Z,0.00
2023-01-09T04:26:34.312Z,0.00
2023-01-09T04:27:34.337Z,0.00
2023-01-09T04:28:34.375Z,0.00
2023-01-09T04:29:34.389Z,0.00
2023-01-09T04:30:34.371Z,0.00
2023-01-09T04:31:34.471Z,0.00
2023-01-09T04:32:34.432Z,0.00
2023-01-09T04:33:34.435Z,0.00
2023-01-09T04:34:34.447Z,0.00
2023-01-09T04:35:34.463Z,0.00
2023-01-09T04:36:34.507Z,0.00
2023-01-09T04:37:34.481Z,0.00
2023-01-09T04:38:34.501Z,0.00
2023-01-09T04:39:34.547Z,0.00
2023-01-09T04:40:34.597Z,0.00
2023-01-09T04:41:34.566Z,0.00
2023-01-09T04:42:34.625Z,0.00
2023-01-09T04:43:34.811Z,0.00
2023-01-09T04:44:34.597Z,0.00
2023-01-09T04:45:34.699Z,0.00
2023-01-09T04:46:34.719Z,0.00
2023-01-09T04:47:34.603Z,0.00
2023-01-09T04:48:34.610Z,0.00
2023-01-09T04:49:34.633Z,0.00
2023-01-09T04:50:34.670Z,0.00
2023-01-09T04:51:34.702Z,0.00
2023-01-09T04:52:34.674Z,0.00
2023-01-09T04:53:34.690Z,0.00
2023-01-09T04:54:34.726Z,0.00
2023-01-09T04:55:34.756Z,0.00
2023-01-09T04:56:34.802Z,0.00
2023-01-09T04:57:34.768Z,0.00
2023-01-09T04:58:34.804Z,0.00
2023-01-09T04:59:34.819Z,0.00
2023-01-09T05:00:34.810Z,0.00
2023-01-09T05:01:34.917Z,0.00
2023-01-09T05:02:34.832Z,0.00
2023-01-09T05:03:34.867Z,0.00
2023-01-09T05:04:34.942Z,0.00
2023-01-09T05:05:34.877Z,0.00
2023-01-09T05:06:34.899Z,0.00
2023-01-09T05:07:34.893Z,0.00
2023-01-09T05:08:34.933Z,0.00
2023-01-09T05:09:34.956Z,0.00
2023-01-09T05:10:34.970Z,0.00
2023-01-09T05:11:34.944Z,0.00
2023-01-09T05:12:34.994Z,0.00
2023-01-09T05:13:34.964Z,0.00
2023-01-09T05:14:34.962Z,0.00
2023-01-09T05:15:34.939Z,0.00
2023-01-09T05:16:35.133Z,0.00
2023-01-09T05:17:35.016Z,0.00
2023-01-09T05:18:34.983Z,0.00
2023-01-09T05:19:35.012Z,0.00
2023-01-09T05:20:35.036Z,0.00
2023-01-09T05:21:35.063Z,0.00
2023-01-09T05:22:35.103Z,0.00
2023-01-09T05:23:35.114Z,0.00
2023-01-09T05:24:35.073Z,0.00
2023-01-09T05:25:35.112Z,0.00
2023-01-09T05:26:35.122Z,0.00
2023-01-09T05:27:35.213Z,0.00
2023-01-09T05:28:35.217Z,0.00
2023-01-09T05:29:35.190Z,0.00
2023-01-09T05:30:35.163Z,0.00
2023-01-09T05:31:35.205Z,0.00
2023-01-09T05:32:35.205Z,0.00
2023-01-09T05:33:35.176Z,0.00
2023-01-09T05:34:35.197Z,0.00
2023-01-09T05:35:35.258Z,0.00
2023-01-09T05:36:35.218Z,0.00
2023-01-09T05:37:35.253Z,0.00
2023-01-09T05:38:35.237Z,0.00
2023-01-09T05:39:35.258Z,0.00
2023-01-09T05:40:40.339Z,0.00
2023-01-09T05:41:35.314Z,0.00
2023-01-09T05:42:35.288Z,0.00
2023-01-09T05:43:35.312Z,0.00
2023-01-09T05:44:35.357Z,0.00
2023-01-09T05:45:35.410Z,0.00
2023-01-09T05:46:35.369Z,0.00
2023-01-09T05:47:35.422Z,0.00
2023-01-09T05:48:35.399Z,0.00
2023-01-09T05:49:35.445Z,0.00
2023-01-09T05:50:35.509Z,0.00
2023-01-09T05:51:35.479Z,0.00
2023-01-09T05:52:35.479Z,0.00
2023-01-09T05:53:35.529Z,0.00
2023-01-09T05:54:35.514Z,0.00
2023-01-09T05:55:35.534Z,0.00
2023-01-09T05:56:35.542Z,0.00
2023-01-09T05:57:35.504Z,0.00
2023-01-09T05:58:35.543Z,0.00
2023-01-09T05:59:35.561Z,0.00
2023-01-09T06:02:01.601Z,0.00
2023-01-09T06:03:01.581Z,0.00
2023-01-09T06:04:01.501Z,0.00
2023-01-09T06:05:01.508Z,0.00
2023-01-09T06:06:01.533Z,0.00
2023-01-09T06:07:01.549Z,0.00
2023-01-09T06:08:01.559Z,0.00
2023-01-09T06:09:01.587Z,0.00
2023-01-09T06:10:01.600Z,0.00
2023-01-09T06:11:01.621Z,0.00
2023-01-09T06:12:01.624Z,0.00
2023-01-09T06:13:01.644Z,0.00
2023-01-09T06:14:01.674Z,0.00
2023-01-09T06:15:01.734Z,0.00
2023-01-09T06:16:01.777Z,0.00
2023-01-09T06:17:01.702Z,0.00
2023-01-09T06:18:01.752Z,0.00
2023-01-09T06:19:01.746Z,0.00
2023-01-09T06:20:01.746Z,0.00
2023-01-09T06:21:01.775Z,0.00
2023-01-09T06:22:01.746Z,0.00
2023-01-09T06:23:01.791Z,0.00
2023-01-09T06:24:01.803Z,0.00
2023-01-09T06:25:01.802Z,0.00
2023-01-09T06:26:01.822Z,0.00
2023-01-09T06:27:01.789Z,0.00
2023-01-09T06:28:01.831Z,0.00
2023-01-09T06:29:01.801Z,0.00
2023-01-09T06:30:01.848Z,0.00
2023-01-09T06:31:01.890Z,0.00
2023-01-09T06:32:01.845Z,0.00
2023-01-09T06:33:01.873Z,0.00
2023-01-09T06:34:01.899Z,0.00
2023-01-09T06:35:01.855Z,0.00
2023-01-09T06:36:01.927Z,0.00
2023-01-09T06:37:01.888Z,0.00
2023-01-09T06:38:01.920Z,0.00
2023-01-09T06:39:01.897Z,0.00
2023-01-09T06:40:01.972Z,0.00
2023-01-09T06:41:01.968Z,0.00
2023-01-09T06:42:01.949Z,0.00
2023-01-09T06:43:01.989Z,0.00
2023-01-09T06:44:01.980Z,0.00
2023-01-09T06:45:01.966Z,1.00
2023-01-09T06:46:02.104Z,1.00
2023-01-09T06:47:02.021Z,1.00
2023-01-09T06:48:02.037Z,2.00
2023-01-09T06:49:02.148Z,1.00
2023-01-09T06:50:02.122Z,1.00
2023-01-09T06:51:02.130Z,1.00
2023-01-09T06:52:02.094Z,2.00
2023-01-09T06:53:02.142Z,3.00
2023-01-09T06:54:02.099Z,3.00
2023-01-09T06:55:02.120Z,4.00
2023-01-09T06:56:02.244Z,5.00
2023-01-09T06:57:02.180Z,5.00
2023-01-09T06:58:02.162Z,7.00
2023-01-09T06:59:02.209Z,7.00
2023-01-09T07:00:02.180Z,9.00
2023-01-09T07:01:02.395Z,9.00
2023-01-09T07:02:02.283Z,12.00
2023-01-09T07:03:02.247Z,12.00
2023-01-09T07:04:02.324Z,14.00
2023-01-09T07:05:02.259Z,16.00
2023-01-09T07:06:02.301Z,19.00
2023-01-09T07:07:02.274Z,21.00
2023-01-09T07:08:02.288Z,24.00
2023-01-09T07:09:02.323Z,27.00
2023-01-09T07:10:02.352Z,31.00
2023-01-09T07:11:02.368Z,34.00
2023-01-09T07:12:02.386Z,39.00
2023-01-09T07:13:02.417Z,41.00
2023-01-09T07:14:02.468Z,46.00
2023-01-09T07:15:02.452Z,50.00
2023-01-09T07:16:02.459Z,55.00
2023-01-09T07:17:02.405Z,59.00
2023-01-09T07:18:02.419Z,63.00
2023-01-09T07:19:02.433Z,68.00
2023-01-09T07:20:02.484Z,72.00
2023-01-09T07:21:02.899Z,78.00
2023-01-09T07:22:02.567Z,83.00
2023-01-09T07:23:02.488Z,89.00
2023-01-09T07:24:02.504Z,94.00
2023-01-09T07:25:02.543Z,99.00
2023-01-09T07:26:02.569Z,110.00
2023-01-09T07:27:02.544Z,116.00
2023-01-09T07:28:02.560Z,122.00
2023-01-09T07:29:02.559Z,127.00
2023-01-09T07:30:02.656Z,133.00
2023-01-09T07:31:02.720Z,138.00
2023-01-09T07:32:02.716Z,143.00
2023-01-09T07:33:04.122Z,144.00
2023-01-09T07:34:02.627Z,145.00
2023-01-09T07:35:02.664Z,140.00
2023-01-09T07:36:02.709Z,146.00
2023-01-09T07:37:02.718Z,150.00
2023-01-09T07:38:02.730Z,155.00
2023-01-09T07:39:02.727Z,161.00
2023-01-09T07:40:02.705Z,166.00
2023-01-09T07:41:02.749Z,171.00
2023-01-09T07:42:02.725Z,177.00
2023-01-09T07:43:02.714Z,184.00
2023-01-09T07:44:02.769Z,187.00
2023-01-09T07:45:02.769Z,191.00
2023-01-09T07:46:02.823Z,199.00
2023-01-09T07:47:02.782Z,204.00
2023-01-09T07:48:02.760Z,213.00
2023-01-09T07:49:02.785Z,220.00
2023-01-09T07:50:02.822Z,224.00
2023-01-09T07:51:02.879Z,230.00
2023-01-09T07:52:02.825Z,229.00
2023-01-09T07:53:02.823Z,232.00
2023-01-09T07:54:02.843Z,231.00
2023-01-09T07:55:02.865Z,224.00
2023-01-09T07:56:02.831Z,217.00
2023-01-09T07:57:03.014Z,211.00
2023-01-09T07:58:02.856Z,213.00
2023-01-09T07:59:02.870Z,212.00
2023-01-09T08:00:02.910Z,221.00
2023-01-09T08:01:02.960Z,244.00
2023-01-09T08:02:02.951Z,263.00
2023-01-09T08:03:03.001Z,266.00
2023-01-09T08:04:02.909Z,258.00
2023-01-09T08:05:02.883Z,270.00
2023-01-09T08:06:02.926Z,286.00
2023-01-09T08:07:02.903Z,311.00
2023-01-09T08:08:02.931Z,296.00
2023-01-09T08:09:02.943Z,304.00
2023-01-09T08:10:03.010Z,334.00
2023-01-09T08:11:02.981Z,335.00
2023-01-09T08:12:03.005Z,334.00
2023-01-09T08:13:03.029Z,339.00
2023-01-09T08:14:03.027Z,347.00
2023-01-09T08:15:03.008Z,345.00
2023-01-09T08:16:03.109Z,326.00
2023-01-09T08:17:03.060Z,366.00
2023-01-09T08:18:03.133Z,378.00
2023-01-09T08:19:03.085Z,439.00
2023-01-09T08:20:03.111Z,427.00
2023-01-09T08:21:03.143Z,487.00
2023-01-09T08:22:03.110Z,417.00
2023-01-09T08:23:03.136Z,471.00
2023-01-09T08:24:03.120Z,437.00
2023-01-09T08:25:03.135Z,471.00
2023-01-09T08:26:03.206Z,355.00
2023-01-09T08:27:03.210Z,505.00
2023-01-09T08:28:03.189Z,510.00
2023-01-09T08:29:03.193Z,539.00
2023-01-09T08:30:03.223Z,587.00
2023-01-09T08:31:03.363Z,607.00
2023-01-09T08:32:03.257Z,575.00
2023-01-09T08:33:03.333Z,509.00
2023-01-09T08:34:03.308Z,568.00
2023-01-09T08:35:03.408Z,630.00
2023-01-09T08:36:03.459Z,578.00
2023-01-09T08:37:03.360Z,609.00
2023-01-09T08:38:03.362Z,605.00
2023-01-09T08:39:03.379Z,626.00
2023-01-09T08:40:03.396Z,680.00
2023-01-09T08:41:03.427Z,692.00
2023-01-09T08:42:04.700Z,666.00
2023-01-09T08:43:03.496Z,695.00
2023-01-09T08:44:03.550Z,670.00
2023-01-09T08:45:03.553Z,741.00
2023-01-09T08:46:03.613Z,882.00
2023-01-09T08:47:03.530Z,1101.00
2023-01-09T08:48:03.578Z,1164.00
2023-01-09T08:49:03.564Z,1118.00
2023-01-09T08:50:03.538Z,1023.00
2023-01-09T08:51:03.599Z,1057.00
2023-01-09T08:52:03.588Z,1099.00
2023-01-09T08:53:03.572Z,999.00
2023-01-09T08:54:03.608Z,1215.00
2023-01-09T08:55:03.598Z,1207.00
2023-01-09T08:56:03.629Z,1221.00
2023-01-09T08:57:03.609Z,1168.00
2023-01-09T08:58:03.703Z,1040.00
2023-01-09T08:59:03.645Z,933.00
2023-01-09T09:00:03.629Z,914.00
2023-01-09T09:01:03.669Z,1088.00
2023-01-09T09:02:03.692Z,1084.00
2023-01-09T09:03:03.790Z,1084.00
2023-01-09T09:04:03.725Z,1209.00
2023-01-09T09:05:03.779Z,1179.00
2023-01-09T09:06:03.809Z,1191.00
2023-01-09T09:07:03.785Z,1176.00
2023-01-09T09:08:03.820Z,1083.00
2023-01-09T09:09:03.843Z,1028.00
2023-01-09T09:10:03.835Z,1162.00
2023-01-09T09:11:03.842Z,1264.00
2023-01-09T09:12:03.821Z,1288.00
2023-01-09T09:13:03.850Z,1262.00
2023-01-09T09:14:03.845Z,1336.00
2023-01-09T09:15:03.979Z,1181.00
2023-01-09T09:16:03.916Z,834.00
2023-01-09T09:17:03.866Z,770.00
2023-01-09T09:18:03.962Z,854.00
2023-01-09T09:19:03.923Z,943.00
2023-01-09T09:20:03.940Z,965.00
2023-01-09T09:21:03.933Z,1060.00
2023-01-09T09:22:03.906Z,1008.00
2023-01-09T09:23:03.954Z,910.00
2023-01-09T09:24:03.924Z,895.00
2023-01-09T09:25:03.959Z,1002.00
2023-01-09T09:26:03.989Z,1156.00
2023-01-09T09:27:04.001Z,1166.00
2023-01-09T09:28:04.032Z,1255.00
2023-01-09T09:29:04.008Z,1161.00
2023-01-09T09:30:04.064Z,1267.00
2023-01-09T09:31:04.208Z,1524.00
2023-01-09T09:32:04.021Z,1512.00
2023-01-09T09:33:04.043Z,1517.00
2023-01-09T09:34:04.033Z,1464.00
2023-01-09T09:35:04.019Z,1379.00
2023-01-09T09:36:04.024Z,1521.00
2023-01-09T09:37:04.128Z,1633.00
2023-01-09T09:38:05.490Z,1572.00
2023-01-09T09:39:04.077Z,1643.00
2023-01-09T09:40:17.582Z,1658.00
2023-01-09T09:41:04.128Z,1761.00
2023-01-09T09:42:04.099Z,1697.00
2023-01-09T09:43:05.338Z,1661.00
2023-01-09T09:44:04.142Z,1512.00
2023-01-09T09:45:04.131Z,1502.00
2023-01-09T09:46:04.224Z,1544.00
2023-01-09T09:47:04.218Z,1490.00
2023-01-09T09:48:04.211Z,1656.00
2023-01-09T09:49:05.965Z,1712.00
2023-01-09T09:50:04.187Z,1645.00
2023-01-09T09:51:04.216Z,1682.00
2023-01-09T09:52:04.243Z,1644.00
2023-01-09T09:53:04.281Z,1603.00
2023-01-09T09:54:04.272Z,1439.00
2023-01-09T09:55:04.301Z,1548.00
2023-01-09T09:56:04.317Z,1493.00
2023-01-09T09:57:04.371Z,1742.00
2023-01-09T09:58:04.376Z,1648.00
2023-01-09T09:59:04.378Z,1347.00
2023-01-09T10:00:04.351Z,1257.00
2023-01-09T10:01:04.397Z,1423.00
2023-01-09T10:02:04.455Z,1666.00
2023-01-09T10:03:04.425Z,1670.00
2023-01-09T10:04:04.477Z,1374.00
2023-01-09T10:05:04.404Z,1502.00
2023-01-09T10:06:04.400Z,1870.00
2023-01-09T10:07:04.371Z,1606.00
2023-01-09T10:08:15.507Z,1460.00
2023-01-09T10:09:04.385Z,1237.00
2023-01-09T10:10:04.475Z,1224.00
2023-01-09T10:11:04.437Z,1692.00
2023-01-09T10:12:04.474Z,1840.00
2023-01-09T10:13:04.553Z,1955.00
2023-01-09T10:14:06.290Z,2271.00
2023-01-09T10:15:04.510Z,1867.00
2023-01-09T10:16:04.555Z,1993.00
2023-01-09T10:17:04.505Z,1888.00
2023-01-09T10:18:04.547Z,1890.00
2023-01-09T10:19:04.573Z,1727.00
2023-01-09T10:20:04.838Z,1695.00
2023-01-09T10:21:04.597Z,1417.00
2023-01-09T10:22:04.651Z,1611.00
2023-01-09T10:23:04.593Z,1766.00
2023-01-09T10:24:04.870Z,1507.00
2023-01-09T10:25:04.731Z,1408.00
2023-01-09T10:26:04.609Z,1473.00
2023-01-09T10:27:04.631Z,1453.00
2023-01-09T10:28:04.708Z,1532.00
2023-01-09T10:29:04.638Z,1934.00
2023-01-09T10:30:04.722Z,1936.00
2023-01-09T10:31:04.820Z,1937.00
2023-01-09T10:32:04.723Z,2185.00
2023-01-09T10:33:04.697Z,1599.00
2023-01-09T10:34:04.755Z,1482.00
2023-01-09T10:35:04.723Z,1322.00
2023-01-09T10:36:04.751Z,1294.00
2023-01-09T10:37:04.775Z,1551.00
2023-01-09T10:38:04.739Z,1399.00
2023-01-09T10:39:04.768Z,1621.00
2023-01-09T10:40:04.784Z,1708.00
2023-01-09T10:41:04.829Z,1743.00
2023-01-09T10:42:04.818Z,1587.00
2023-01-09T10:43:04.816Z,1798.00
2023-01-09T10:44:04.814Z,1715.00
2023-01-09T10:45:04.787Z,1915.00
2023-01-09T10:46:04.925Z,2235.00
2023-01-09T10:47:04.831Z,2140.00
2023-01-09T10:48:04.822Z,2089.00
2023-01-09T10:49:04.892Z,2187.00
2023-01-09T10:50:04.884Z,2227.00
2023-01-09T10:51:04.892Z,1907.00
2023-01-09T10:52:04.937Z,1950.00
2023-01-09T10:53:04.943Z,2060.00
2023-01-09T10:54:04.966Z,2442.00
2023-01-09T10:55:05.003Z,1796.00
2023-01-09T10:56:04.984Z,1604.00
2023-01-09T10:57:05.005Z,1231.00
2023-01-09T10:58:05.005Z,1104.00
2023-01-09T10:59:05.014Z,1149.00
2023-01-09T11:00:05.020Z,1032.00
2023-01-09T11:01:05.004Z,1040.00
2023-01-09T11:02:05.062Z,1009.00
2023-01-09T11:03:05.107Z,1290.00
2023-01-09T11:04:05.055Z,1321.00
2023-01-09T11:05:05.073Z,1302.00
2023-01-09T11:06:05.148Z,1396.00
2023-01-09T11:07:05.108Z,1843.00
2023-01-09T11:08:05.116Z,1858.00
2023-01-09T11:09:05.138Z,2237.00
2023-01-09T11:10:05.176Z,2732.00
2023-01-09T11:11:05.207Z,2598.00
2023-01-09T11:12:05.227Z,2259.00
2023-01-09T11:13:05.260Z,2131.00
2023-01-09T11:14:05.269Z,2435.00
2023-01-09T11:15:05.308Z,2005.00
2023-01-09T11:16:05.369Z,1736.00
2023-01-09T11:17:05.332Z,1551.00
2023-01-09T11:18:05.275Z,1576.00
2023-01-09T11:19:05.341Z,1314.00
2023-01-09T11:20:05.363Z,1599.00
2023-01-09T11:21:05.355Z,1810.00
2023-01-09T11:22:05.386Z,1296.00
2023-01-09T11:23:05.474Z,1849.00
2023-01-09T11:24:05.340Z,1878.00
2023-01-09T11:25:05.332Z,1694.00
2023-01-09T11:26:05.329Z,2120.00
2023-01-09T11:27:05.351Z,2370.00
2023-01-09T11:28:05.341Z,2731.00
2023-01-09T11:29:05.356Z,2200.00
2023-01-09T11:30:05.344Z,2281.00
2023-01-09T11:31:05.434Z,2491.00
2023-01-09T11:32:05.354Z,2694.00
2023-01-09T11:33:05.359Z,2785.00
2023-01-09T11:34:05.358Z,2416.00
2023-01-09T11:35:05.404Z,2299.00
2023-01-09T11:36:05.405Z,2292.00
2023-01-09T11:37:05.778Z,2348.00
2023-01-09T11:38:05.431Z,2498.00
2023-01-09T11:39:05.400Z,2579.00
2023-01-09T11:40:05.429Z,2578.00
2023-01-09T11:41:05.434Z,2984.00
2023-01-09T11:42:05.490Z,3333.00
2023-01-09T11:43:05.461Z,2814.00
2023-01-09T11:44:05.467Z,2346.00
2023-01-09T11:45:05.453Z,2615.00
2023-01-09T11:46:05.450Z,2404.00
2023-01-09T11:47:05.420Z,2253.00
2023-01-09T11:48:05.448Z,2642.00
2023-01-09T11:49:05.547Z,2984.00
2023-01-09T11:50:05.483Z,2310.00
2023-01-09T11:51:05.502Z,2522.00
2023-01-09T11:52:05.515Z,3207.00
2023-01-09T11:53:05.583Z,2822.00
2023-01-09T11:54:05.599Z,3143.00
2023-01-09T11:55:05.596Z,2881.00
2023-01-09T11:56:05.660Z,2029.00
2023-01-09T11:57:05.603Z,2015.00
2023-01-09T11:58:05.589Z,2170.00
2023-01-09T11:59:05.570Z,2248.00
2023-01-09T12:00:05.615Z,2253.00
2023-01-09T12:01:05.670Z,2836.00
2023-01-09T12:02:05.681Z,2935.00
2023-01-09T12:03:05.739Z,2559.00
2023-01-09T12:04:05.635Z,2404.00
2023-01-09T12:05:05.594Z,2860.00
2023-01-09T12:06:05.627Z,2512.00
2023-01-09T12:07:05.661Z,2569.00
2023-01-09T12:08:05.643Z,3035.00
2023-01-09T12:09:05.652Z,3015.00
2023-01-09T12:10:05.681Z,2802.00
2023-01-09T12:11:05.703Z,2572.00
2023-01-09T12:12:05.682Z,2862.00
2023-01-09T12:13:05.849Z,2737.00
2023-01-09T12:14:05.703Z,2828.00
2023-01-09T12:15:05.697Z,2325.00
2023-01-09T12:16:05.784Z,2607.00
2023-01-09T12:17:05.737Z,2430.00
2023-01-09T12:18:05.774Z,2401.00
2023-01-09T12:19:05.786Z,2362.00
2023-01-09T12:20:05.820Z,2261.00
2023-01-09T12:21:05.870Z,2377.00
2023-01-09T12:22:05.849Z,2162.00
2023-01-09T12:23:05.878Z,1840.00
2023-01-09T12:24:05.894Z,2164.00
2023-01-09T12:25:05.920Z,2277.00
2023-01-09T12:26:05.991Z,2094.00
2023-01-09T12:27:05.962Z,2009.00
2023-01-09T12:28:05.995Z,1659.00
2023-01-09T12:29:06.025Z,1798.00
2023-01-09T12:30:06.046Z,2050.00
2023-01-09T12:31:06.060Z,1813.00
2023-01-09T12:32:06.108Z,1798.00
2023-01-09T12:33:06.096Z,2431.00
2023-01-09T12:34:06.131Z,2218.00
2023-01-09T12:35:06.143Z,1618.00
2023-01-09T12:36:06.164Z,1577.00
2023-01-09T12:37:06.310Z,1575.00
2023-01-09T12:38:06.187Z,1567.00
2023-01-09T12:39:06.172Z,1649.00
2023-01-09T12:40:06.210Z,1506.00
2023-01-09T12:41:07.891Z,1511.00
2023-01-09T12:42:06.375Z,1906.00
2023-01-09T12:43:06.304Z,1672.00
2023-01-09T12:44:06.308Z,2309.00
2023-01-09T12:45:06.338Z,2113.00
2023-01-09T12:46:06.392Z,2030.00
2023-01-09T12:47:06.392Z,2228.00
2023-01-09T12:48:06.371Z,2237.00
2023-01-09T12:49:06.342Z,1738.00
2023-01-09T12:50:06.398Z,1639.00